createdAt,value
2022-11-30T00:00:31.897Z,85.54
2022-11-30T00:01:34.688Z,85.30
2022-11-30T00:02:37.522Z,85.75
2022-11-30T00:03:40.746Z,86.22
2022-11-30T00:04:43.508Z,86.50
2022-11-30T00:05:46.746Z,86.43
2022-11-30T00:06:49.817Z,85.89
2022-11-30T00:07:54.798Z,86.36
2022-11-30T00:08:58.868Z,86.50
2022-11-30T00:10:01.902Z,86.18
2022-11-30T00:11:28.182Z,85.84
2022-11-30T00:12:31.068Z,85.72
2022-11-30T00:13:37.686Z,85.99
2022-11-30T00:14:40.444Z,85.39
2022-11-30T00:15:43.172Z,85.84
2022-11-30T00:16:45.942Z,85.92
2022-11-30T00:17:48.774Z,86.14
2022-11-30T00:18:51.980Z,86.53
2022-11-30T00:19:56.253Z,86.21
2022-11-30T00:21:02.990Z,86.46
2022-11-30T00:22:05.697Z,86.24
2022-11-30T00:23:10.211Z,85.90
2022-11-30T00:24:13.120Z,85.83
2022-11-30T00:25:16.001Z,84.97
2022-11-30T00:26:22.880Z,85.21
2022-11-30T00:27:28.026Z,85.59
2022-11-30T00:28:33.342Z,85.45
2022-11-30T00:29:36.142Z,84.94
2022-11-30T00:30:39.116Z,85.28
2022-11-30T00:31:42.026Z,84.93
2022-11-30T00:32:44.950Z,85.00
2022-11-30T00:33:47.979Z,84.79
2022-11-30T00:34:50.843Z,84.68
2022-11-30T00:35:59.090Z,84.71
2022-11-30T00:37:01.964Z,85.15
2022-11-30T00:38:05.034Z,84.40
2022-11-30T00:39:07.966Z,83.91
2022-11-30T00:40:11.193Z,83.68
2022-11-30T00:41:14.543Z,83.80
2022-11-30T00:42:17.644Z,83.57
2022-11-30T00:43:20.709Z,84.01
2022-11-30T00:44:23.569Z,84.18
2022-11-30T00:45:26.596Z,84.61
2022-11-30T00:46:29.636Z,84.76
2022-11-30T00:47:32.631Z,85.40
2022-11-30T00:48:36.369Z,84.93
2022-11-30T00:49:39.214Z,84.75
2022-11-30T00:50:42.344Z,84.51
2022-11-30T00:51:45.137Z,83.73
2022-11-30T00:52:48.178Z,83.70
2022-11-30T00:53:51.098Z,84.30
2022-11-30T00:54:54.056Z,84.20
2022-11-30T00:55:56.979Z,83.92
2022-11-30T00:56:59.852Z,82.99
2022-11-30T00:58:03.138Z,83.46
2022-11-30T00:59:06.265Z,83.57
2022-11-30T01:00:09.943Z,83.07
2022-11-30T01:01:13.076Z,83.15
2022-11-30T01:02:16.320Z,83.87
2022-11-30T01:03:19.544Z,83.75
2022-11-30T01:04:22.640Z,82.78
2022-11-30T01:05:26.147Z,83.19
2022-11-30T01:06:29.187Z,82.75
2022-11-30T01:07:31.949Z,82.56
2022-11-30T01:08:35.746Z,83.17
2022-11-30T01:09:38.581Z,83.66
2022-11-30T01:10:43.301Z,83.03
2022-11-30T01:11:46.065Z,83.10
2022-11-30T01:12:49.796Z,82.85
2022-11-30T01:13:53.737Z,82.56
2022-11-30T01:14:56.515Z,81.84
2022-11-30T01:15:59.840Z,82.47
2022-11-30T01:17:02.845Z,81.94
2022-11-30T01:18:06.601Z,82.21
2022-11-30T01:19:09.415Z,82.16
2022-11-30T01:20:12.600Z,81.67
2022-11-30T01:21:19.494Z,82.85
2022-11-30T01:22:22.562Z,81.94
2022-11-30T01:23:25.561Z,81.58
2022-11-30T01:24:35.136Z,81.23
2022-11-30T01:25:38.532Z,80.71
2022-11-30T01:26:41.918Z,80.80
2022-11-30T01:27:48.350Z,81.22
2022-11-30T01:28:53.377Z,80.93
2022-11-30T01:29:56.411Z,80.66
2022-11-30T01:31:02.113Z,80.30
2022-11-30T01:32:05.410Z,79.70
2022-11-30T01:33:08.281Z,80.61
2022-11-30T01:34:11.483Z,80.67
2022-11-30T01:35:14.988Z,80.10
2022-11-30T01:36:21.039Z,80.04
2022-11-30T01:37:24.015Z,79.53
2022-11-30T01:38:27.817Z,79.42
2022-11-30T01:39:30.619Z,79.46
2022-11-30T01:40:33.587Z,79.75
2022-11-30T01:41:37.430Z,79.93
2022-11-30T01:42:47.145Z,79.52
2022-11-30T01:43:56.739Z,79.48
2022-11-30T01:45:01.740Z,79.08
2022-11-30T01:46:18.176Z,78.79
2022-11-30T01:47:43.580Z,79.14
2022-11-30T01:48:53.937Z,79.37
2022-11-30T01:50:08.858Z,78.61
2022-11-30T01:51:11.785Z,77.84
2022-11-30T01:52:22.699Z,78.25
2022-11-30T01:53:25.975Z,77.71
2022-11-30T01:54:52.137Z,77.33
2022-11-30T01:55:55.113Z,77.56
2022-11-30T01:57:03.497Z,77.57
2022-11-30T01:58:12.032Z,77.85
2022-11-30T01:59:15.822Z,78.09
2022-11-30T02:00:19.731Z,78.41
2022-11-30T02:01:22.581Z,77.95
2022-11-30T02:02:34.825Z,77.09
2022-11-30T02:03:56.328Z,77.22
2022-11-30T02:04:59.749Z,77.30
2022-11-30T02:06:03.334Z,77.63
2022-11-30T02:07:09.096Z,77.37
2022-11-30T02:08:16.343Z,76.96
2022-11-30T02:09:22.878Z,76.68
2022-11-30T02:10:29.673Z,76.54
2022-11-30T02:11:32.701Z,76.00
2022-11-30T02:13:04.200Z,76.33
2022-11-30T02:14:29.298Z,76.27
2022-11-30T02:15:47.170Z,76.28
2022-11-30T02:17:03.459Z,76.31
2022-11-30T02:18:14.944Z,76.20
2022-11-30T02:19:55.703Z,76.79
2022-11-30T02:21:07.185Z,77.03
2022-11-30T02:22:38.054Z,77.53
2022-11-30T02:24:15.806Z,77.54
2022-11-30T02:25:26.609Z,76.67
2022-11-30T02:26:36.885Z,75.93
2022-11-30T02:28:01.375Z,76.27
2022-11-30T02:29:28.871Z,76.13
2022-11-30T02:30:36.954Z,77.17
2022-11-30T02:31:57.740Z,75.68
2022-11-30T02:33:09.341Z,74.92
2022-11-30T02:34:16.114Z,75.38
2022-11-30T02:35:24.574Z,75.62
2022-11-30T02:36:28.976Z,75.30
2022-11-30T02:37:34.141Z,76.23
2022-11-30T02:38:38.594Z,75.39
2022-11-30T02:39:42.536Z,75.72
2022-11-30T02:40:45.592Z,75.38
2022-11-30T02:41:48.561Z,75.49
2022-11-30T02:42:52.788Z,75.60
2022-11-30T02:43:55.720Z,76.03
2022-11-30T02:44:59.086Z,75.56
2022-11-30T02:46:17.163Z,75.19
2022-11-30T02:47:43.583Z,75.29
2022-11-30T02:49:09.944Z,75.36
2022-11-30T02:50:29.871Z,75.84
2022-11-30T02:51:38.150Z,74.87
2022-11-30T02:52:41.761Z,74.97
2022-11-30T02:53:45.676Z,74.61
2022-11-30T02:54:48.909Z,74.67
2022-11-30T02:55:54.811Z,73.65
2022-11-30T02:56:58.306Z,73.73
2022-11-30T02:58:01.425Z,74.06
2022-11-30T02:59:05.418Z,74.85
2022-11-30T03:00:13.543Z,74.14
2022-11-30T03:01:16.449Z,73.67
2022-11-30T03:02:19.436Z,73.32
2022-11-30T03:03:22.437Z,72.63
2022-11-30T03:04:25.352Z,72.61
2022-11-30T03:05:28.371Z,72.43
2022-11-30T03:06:31.380Z,72.93
2022-11-30T03:07:34.686Z,72.68
2022-11-30T03:08:37.595Z,71.94
2022-11-30T03:09:40.759Z,71.99
2022-11-30T03:10:43.696Z,71.77
2022-11-30T03:11:46.811Z,70.62
2022-11-30T03:12:49.892Z,70.99
2022-11-30T03:13:53.024Z,70.92
2022-11-30T03:14:56.061Z,71.31
2022-11-30T03:15:59.179Z,70.77
2022-11-30T03:17:02.130Z,70.28
2022-11-30T03:18:05.733Z,70.47
2022-11-30T03:19:08.920Z,70.27
2022-11-30T03:20:11.984Z,70.05
2022-11-30T03:21:14.784Z,70.30
2022-11-30T03:22:17.681Z,70.53
2022-11-30T03:23:20.531Z,70.55
2022-11-30T03:24:23.454Z,69.91
2022-11-30T03:25:26.298Z,69.96
2022-11-30T03:26:29.780Z,69.93
2022-11-30T03:27:32.914Z,69.28
2022-11-30T03:28:37.110Z,69.80
2022-11-30T03:29:39.986Z,69.41
2022-11-30T03:30:53.305Z,69.60
2022-11-30T03:31:56.203Z,68.91
2022-11-30T03:32:59.146Z,69.17
2022-11-30T03:34:02.000Z,68.84
2022-11-30T03:35:05.280Z,69.43
2022-11-30T03:36:10.456Z,69.21
2022-11-30T03:37:13.366Z,69.58
2022-11-30T03:38:16.247Z,68.59
2022-11-30T03:39:19.370Z,68.34
2022-11-30T03:40:22.333Z,67.95
2022-11-30T03:41:25.234Z,68.33
2022-11-30T03:42:28.108Z,68.49
2022-11-30T03:43:31.731Z,68.99
2022-11-30T03:44:34.553Z,68.32
2022-11-30T03:45:37.437Z,68.20
2022-11-30T03:46:40.351Z,67.72
2022-11-30T03:47:44.210Z,67.73
2022-11-30T03:48:47.138Z,68.52
2022-11-30T03:49:50.238Z,68.99
2022-11-30T03:50:56.462Z,68.28
2022-11-30T03:51:59.597Z,68.32
2022-11-30T03:53:02.382Z,68.23
2022-11-30T03:54:05.680Z,68.34
2022-11-30T03:55:09.044Z,68.17
2022-11-30T03:56:13.040Z,67.96
2022-11-30T03:57:16.821Z,68.58
2022-11-30T03:58:20.035Z,68.29
2022-11-30T03:59:23.255Z,68.71
2022-11-30T04:00:26.217Z,68.60
2022-11-30T04:01:29.190Z,68.35
2022-11-30T04:02:32.418Z,68.82
2022-11-30T04:03:36.098Z,69.34
2022-11-30T04:04:39.124Z,68.50
2022-11-30T04:05:42.110Z,67.98
2022-11-30T04:06:45.379Z,68.25
2022-11-30T04:07:48.594Z,68.37
2022-11-30T04:08:51.637Z,68.22
2022-11-30T04:09:54.626Z,67.94
2022-11-30T04:10:59.495Z,67.82
2022-11-30T04:12:06.277Z,68.36
2022-11-30T04:13:09.199Z,68.47
2022-11-30T04:14:12.042Z,68.65
2022-11-30T04:15:15.326Z,68.68
2022-11-30T04:16:18.190Z,69.12
2022-11-30T04:17:21.408Z,68.50
2022-11-30T04:18:25.860Z,68.15
2022-11-30T04:19:28.792Z,68.02
2022-11-30T04:20:34.844Z,68.37
2022-11-30T04:22:47.568Z,68.56
2022-11-30T04:23:50.365Z,68.59
2022-11-30T04:24:53.100Z,68.31
2022-11-30T04:26:05.153Z,68.83
2022-11-30T04:27:11.441Z,68.76
2022-11-30T04:28:18.555Z,68.98
2022-11-30T04:29:21.638Z,69.53
2022-11-30T04:30:24.685Z,68.81
2022-11-30T04:31:27.550Z,69.41
2022-11-30T04:32:30.326Z,68.81
2022-11-30T04:33:33.329Z,68.31
2022-11-30T04:34:36.255Z,68.25
2022-11-30T04:35:51.861Z,68.11
2022-11-30T04:36:58.842Z,68.36
2022-11-30T04:38:03.336Z,68.25
2022-11-30T04:39:06.275Z,69.14
2022-11-30T04:40:09.563Z,68.57
2022-11-30T04:41:12.424Z,67.63
2022-11-30T04:42:15.218Z,67.63
2022-11-30T04:43:18.548Z,67.05
2022-11-30T04:44:21.334Z,67.42
2022-11-30T04:45:24.259Z,67.94
2022-11-30T04:46:27.322Z,67.81
2022-11-30T04:47:30.156Z,67.79
2022-11-30T04:48:33.742Z,68.21
2022-11-30T04:49:36.816Z,68.29
2022-11-30T04:50:39.742Z,66.96
2022-11-30T04:51:42.453Z,66.99
2022-11-30T04:52:45.421Z,67.16
2022-11-30T04:53:48.188Z,67.77
2022-11-30T04:54:51.856Z,67.59
2022-11-30T04:55:54.574Z,67.64
2022-11-30T04:56:57.472Z,67.61
2022-11-30T04:58:00.275Z,67.55
2022-11-30T04:59:03.209Z,67.92
2022-11-30T05:00:06.998Z,67.86
2022-11-30T05:01:10.284Z,68.56
2022-11-30T05:02:13.177Z,68.29
2022-11-30T05:03:16.173Z,67.92
2022-11-30T05:04:19.039Z,68.06
2022-11-30T05:05:21.939Z,67.86
2022-11-30T05:06:25.071Z,68.88
2022-11-30T05:07:28.048Z,68.18
2022-11-30T05:08:34.256Z,67.74
2022-11-30T05:09:37.822Z,67.53
2022-11-30T05:10:40.741Z,67.90
2022-11-30T05:11:43.742Z,67.73
2022-11-30T05:12:46.654Z,68.01
2022-11-30T05:13:49.453Z,68.23
2022-11-30T05:14:52.316Z,68.44
2022-11-30T05:15:58.463Z,68.08
2022-11-30T05:17:01.781Z,68.38
2022-11-30T05:18:04.776Z,67.48
2022-11-30T05:19:07.738Z,67.60
2022-11-30T05:20:11.076Z,68.02
2022-11-30T05:21:14.150Z,67.66
2022-11-30T05:22:17.067Z,68.04
2022-11-30T05:23:20.361Z,68.32
2022-11-30T05:24:23.302Z,68.80
2022-11-30T05:25:26.174Z,68.30
2022-11-30T05:26:28.941Z,68.40
2022-11-30T05:27:31.944Z,68.26
2022-11-30T05:28:34.931Z,68.33
2022-11-30T05:29:37.855Z,68.23
2022-11-30T05:30:42.613Z,68.91
2022-11-30T05:31:45.367Z,69.06
2022-11-30T05:32:48.272Z,68.21
2022-11-30T05:33:54.567Z,68.06
2022-11-30T05:34:57.622Z,68.07
2022-11-30T05:36:04.605Z,68.74
2022-11-30T05:37:10.848Z,67.81
2022-11-30T05:38:13.672Z,68.05
2022-11-30T05:39:16.576Z,67.47
2022-11-30T05:40:19.420Z,67.12
2022-11-30T05:41:22.688Z,67.59
2022-11-30T05:42:25.757Z,67.62
2022-11-30T05:43:28.881Z,66.86
2022-11-30T05:44:31.842Z,66.85
2022-11-30T05:45:34.818Z,66.75
2022-11-30T05:46:40.943Z,66.93
2022-11-30T05:47:44.549Z,66.48
2022-11-30T05:48:47.459Z,66.82
2022-11-30T05:49:50.510Z,66.72
2022-11-30T05:50:53.330Z,67.08
2022-11-30T05:51:56.143Z,66.79
2022-11-30T05:53:01.100Z,67.62
2022-11-30T05:54:04.014Z,67.19
2022-11-30T05:55:07.157Z,67.02
2022-11-30T05:56:13.287Z,67.65
2022-11-30T05:57:16.243Z,67.41
2022-11-30T05:58:19.602Z,67.02
2022-11-30T05:59:23.535Z,66.96
2022-11-30T06:00:26.560Z,66.78
2022-11-30T06:01:29.986Z,67.60
2022-11-30T06:02:32.981Z,66.44
2022-11-30T06:03:36.380Z,66.14
2022-11-30T06:04:39.299Z,66.39
2022-11-30T06:05:42.158Z,66.53
2022-11-30T06:06:45.325Z,67.17
2022-11-30T06:07:48.330Z,67.12
2022-11-30T06:08:51.331Z,66.89
2022-11-30T06:09:54.048Z,66.94
2022-11-30T06:11:01.312Z,66.31
2022-11-30T06:12:04.141Z,66.35
2022-11-30T06:13:10.864Z,66.75
2022-11-30T06:14:13.615Z,67.22
2022-11-30T06:15:18.443Z,67.54
2022-11-30T06:16:21.243Z,67.71
2022-11-30T06:17:24.147Z,67.58
2022-11-30T06:18:30.274Z,67.69
2022-11-30T06:19:33.108Z,67.67
2022-11-30T06:20:35.913Z,67.26
2022-11-30T06:21:38.791Z,67.75
2022-11-30T06:22:45.362Z,67.91
2022-11-30T06:23:48.323Z,66.39
2022-11-30T06:24:51.239Z,65.91
2022-11-30T06:25:54.095Z,66.36
2022-11-30T06:26:57.752Z,66.94
2022-11-30T06:28:00.795Z,66.82
2022-11-30T06:29:03.887Z,66.81
2022-11-30T06:30:07.100Z,66.87
2022-11-30T06:31:11.357Z,66.37
2022-11-30T06:32:14.274Z,66.91
2022-11-30T06:33:21.974Z,66.18
2022-11-30T06:34:24.905Z,65.75
2022-11-30T06:35:27.802Z,66.84
2022-11-30T06:36:35.864Z,66.49
2022-11-30T06:37:39.626Z,66.27
2022-11-30T06:38:42.488Z,66.28
2022-11-30T06:41:10.785Z,65.99
2022-11-30T06:42:13.797Z,66.71
2022-11-30T06:43:16.740Z,66.50
2022-11-30T06:44:19.673Z,66.77
2022-11-30T06:45:22.581Z,66.11
2022-11-30T06:46:27.136Z,66.39
2022-11-30T06:47:29.983Z,66.72
2022-11-30T06:48:33.006Z,66.62
2022-11-30T06:49:35.826Z,65.26
2022-11-30T06:50:38.697Z,65.78
2022-11-30T06:51:41.528Z,66.06
2022-11-30T06:52:44.238Z,65.54
2022-11-30T06:53:47.460Z,65.06
2022-11-30T06:54:51.601Z,65.15
2022-11-30T06:55:54.460Z,65.67
2022-11-30T06:56:58.138Z,65.66
2022-11-30T06:58:08.227Z,65.54
2022-11-30T06:59:11.295Z,65.21
2022-11-30T07:00:14.832Z,65.20
2022-11-30T07:01:17.814Z,65.54
2022-11-30T07:02:21.052Z,65.47
2022-11-30T07:03:23.872Z,66.21
2022-11-30T07:04:26.759Z,65.23
2022-11-30T07:05:29.971Z,65.57
2022-11-30T07:06:32.921Z,65.38
2022-11-30T07:07:35.860Z,64.80
2022-11-30T07:08:40.077Z,65.62
2022-11-30T07:09:43.198Z,65.46
2022-11-30T07:10:47.563Z,64.78
2022-11-30T07:11:50.438Z,65.58
2022-11-30T07:12:53.274Z,65.58
2022-11-30T07:13:56.055Z,65.79
2022-11-30T07:15:02.531Z,65.00
2022-11-30T07:16:08.715Z,64.73
2022-11-30T07:17:12.518Z,64.97
2022-11-30T07:18:15.568Z,64.95
2022-11-30T07:19:19.149Z,65.75
2022-11-30T07:20:23.789Z,65.34
2022-11-30T07:21:26.733Z,64.92
2022-11-30T07:22:29.558Z,65.18
2022-11-30T07:23:56.353Z,64.68
2022-11-30T07:25:18.179Z,65.29
2022-11-30T07:26:22.375Z,65.60
2022-11-30T07:27:25.297Z,65.54
2022-11-30T07:28:28.394Z,66.19
2022-11-30T07:29:31.351Z,65.86
2022-11-30T07:30:37.498Z,64.76
2022-11-30T07:31:40.344Z,65.21
2022-11-30T07:32:46.423Z,65.93
2022-11-30T07:33:50.628Z,66.87
2022-11-30T07:34:53.325Z,65.91
2022-11-30T07:35:56.079Z,65.53
2022-11-30T07:37:02.530Z,65.05
2022-11-30T07:38:09.613Z,64.87
2022-11-30T07:39:13.748Z,64.98
2022-11-30T07:40:16.959Z,64.53
2022-11-30T07:41:19.681Z,64.73
2022-11-30T07:42:23.169Z,64.48
2022-11-30T07:43:25.819Z,63.59
2022-11-30T07:44:28.531Z,63.85
2022-11-30T07:45:31.387Z,63.10
2022-11-30T07:46:36.267Z,63.78
2022-11-30T07:47:42.480Z,63.06
2022-11-30T07:48:46.116Z,63.13
2022-11-30T07:49:52.494Z,63.99
2022-11-30T07:50:55.368Z,64.75
2022-11-30T07:51:58.080Z,63.76
2022-11-30T07:53:00.922Z,62.22
2022-11-30T07:54:04.079Z,63.42
2022-11-30T07:55:07.628Z,62.78
2022-11-30T07:56:13.210Z,62.85
2022-11-30T07:57:16.372Z,62.00
2022-11-30T07:58:19.125Z,61.89
2022-11-30T07:59:22.102Z,62.37
2022-11-30T08:00:25.127Z,62.97
2022-11-30T08:01:33.061Z,62.58
2022-11-30T08:02:37.732Z,62.27
2022-11-30T08:03:44.503Z,62.25
2022-11-30T08:04:47.721Z,61.80
2022-11-30T08:05:50.858Z,62.00
2022-11-30T08:06:55.197Z,61.59
2022-11-30T08:07:58.031Z,60.75
2022-11-30T08:09:04.794Z,60.37
2022-11-30T08:10:08.292Z,60.85
2022-11-30T08:11:13.479Z,60.06
2022-11-30T08:12:16.350Z,59.74
2022-11-30T08:13:19.105Z,59.91
2022-11-30T08:14:21.850Z,60.87
2022-11-30T08:15:31.889Z,61.71
2022-11-30T08:16:40.368Z,61.01
2022-11-30T08:17:43.537Z,60.76
2022-11-30T08:18:47.800Z,60.67
2022-11-30T08:19:54.360Z,59.97
2022-11-30T08:21:01.767Z,60.20
2022-11-30T08:22:04.514Z,59.24
2022-11-30T08:23:07.321Z,58.31
2022-11-30T08:24:14.147Z,58.87
2022-11-30T08:25:17.171Z,58.96
2022-11-30T08:26:23.817Z,58.49
2022-11-30T08:27:27.212Z,59.30
2022-11-30T08:28:30.768Z,59.08
2022-11-30T08:29:33.656Z,58.53
2022-11-30T08:30:36.610Z,58.30
2022-11-30T08:31:39.969Z,59.10
2022-11-30T08:32:42.752Z,58.84
2022-11-30T08:33:45.897Z,58.00
2022-11-30T08:34:48.896Z,58.06
2022-11-30T08:35:51.943Z,58.07
2022-11-30T08:36:58.686Z,58.10
2022-11-30T08:38:01.493Z,58.46
2022-11-30T08:39:06.817Z,57.92
2022-11-30T08:40:10.838Z,59.12
2022-11-30T08:41:15.578Z,57.59
2022-11-30T08:42:18.581Z,57.40
2022-11-30T08:43:21.715Z,57.49
2022-11-30T08:44:24.480Z,57.88
2022-11-30T08:45:27.213Z,57.51
2022-11-30T08:47:55.315Z,58.35
2022-11-30T08:49:19.935Z,57.37
2022-11-30T08:50:23.180Z,57.41
2022-11-30T08:51:25.971Z,57.03
2022-11-30T08:52:32.056Z,57.83
2022-11-30T08:53:34.943Z,57.31
2022-11-30T08:54:40.366Z,57.07
2022-11-30T08:55:43.206Z,57.70
2022-11-30T08:56:46.015Z,57.09
2022-11-30T08:57:48.780Z,57.21
2022-11-30T08:58:51.691Z,57.05
2022-11-30T08:59:54.461Z,56.25
2022-11-30T09:01:13.710Z,56.30
2022-11-30T09:02:18.861Z,57.14
2022-11-30T09:03:22.030Z,57.30
2022-11-30T09:04:24.780Z,57.45
2022-11-30T09:05:27.569Z,57.63
2022-11-30T09:06:30.799Z,56.91
2022-11-30T09:07:33.761Z,56.68
2022-11-30T09:08:39.644Z,57.42
2022-11-30T09:09:44.040Z,56.83
2022-11-30T09:10:46.957Z,58.14
2022-11-30T09:11:49.843Z,56.73
2022-11-30T09:12:52.767Z,56.66
2022-11-30T09:13:57.613Z,57.18
2022-11-30T09:15:00.752Z,57.81
2022-11-30T09:16:04.218Z,57.50
2022-11-30T09:17:07.252Z,57.15
2022-11-30T09:18:10.212Z,57.16
2022-11-30T09:19:13.093Z,58.10
2022-11-30T09:20:16.206Z,57.22
2022-11-30T09:21:21.776Z,57.01
2022-11-30T09:22:24.732Z,56.99
2022-11-30T09:23:28.117Z,57.07
2022-11-30T09:24:31.169Z,57.23
2022-11-30T09:25:33.944Z,57.06
2022-11-30T09:26:37.033Z,57.97
2022-11-30T09:27:39.830Z,56.98
2022-11-30T09:28:42.691Z,56.39
2022-11-30T09:29:45.798Z,56.39
2022-11-30T09:30:52.763Z,56.74
2022-11-30T09:31:55.915Z,56.42
2022-11-30T09:33:00.700Z,56.56
2022-11-30T09:34:03.533Z,56.37
2022-11-30T09:35:11.339Z,57.56
2022-11-30T09:36:18.708Z,56.18
2022-11-30T09:37:22.354Z,55.94
2022-11-30T09:38:25.838Z,55.44
2022-11-30T09:39:28.643Z,55.52
2022-11-30T09:40:35.669Z,56.84
2022-11-30T09:42:22.223Z,57.02
2022-11-30T09:44:09.826Z,55.52
2022-11-30T09:45:30.799Z,56.76
2022-11-30T09:46:46.417Z,56.93
2022-11-30T09:48:02.942Z,57.82
2022-11-30T09:49:25.238Z,55.95
2022-11-30T09:50:33.089Z,55.84
2022-11-30T09:51:47.711Z,55.95
2022-11-30T09:53:19.776Z,56.07
2022-11-30T09:54:45.597Z,55.96
2022-11-30T09:55:48.765Z,56.36
2022-11-30T09:56:52.466Z,56.26
2022-11-30T09:58:03.142Z,56.18
2022-11-30T09:59:12.345Z,56.39
2022-11-30T10:00:19.321Z,55.88
2022-11-30T10:01:23.069Z,56.80
2022-11-30T10:02:30.872Z,56.13
2022-11-30T10:03:34.157Z,56.05
2022-11-30T10:04:36.980Z,56.65
2022-11-30T10:05:42.654Z,56.93
2022-11-30T10:06:50.995Z,56.54
2022-11-30T10:08:11.030Z,58.43
2022-11-30T10:10:09.354Z,57.00
2022-11-30T10:11:33.053Z,57.04
2022-11-30T10:13:08.426Z,57.23
2022-11-30T10:14:29.271Z,57.38
2022-11-30T10:16:14.131Z,57.85
2022-11-30T10:17:34.921Z,58.06
2022-11-30T10:19:05.786Z,58.16
2022-11-30T10:20:17.117Z,56.70
2022-11-30T10:22:01.638Z,56.39
2022-11-30T10:23:18.683Z,56.97
2022-11-30T10:24:36.478Z,56.56
2022-11-30T10:26:23.095Z,57.16
2022-11-30T10:27:49.186Z,56.48
2022-11-30T10:28:54.721Z,56.70
2022-11-30T10:30:00.135Z,57.29
2022-11-30T10:31:03.860Z,57.51
2022-11-30T10:32:30.426Z,56.93
2022-11-30T10:33:41.872Z,56.86
2022-11-30T10:34:52.623Z,57.54
2022-11-30T10:36:07.086Z,58.12
2022-11-30T10:37:18.296Z,57.72
2022-11-30T10:38:51.432Z,57.75
2022-11-30T10:40:00.097Z,57.82
2022-11-30T10:41:30.572Z,57.59
2022-11-30T10:42:45.817Z,57.93
2022-11-30T10:44:06.744Z,58.97
2022-11-30T10:45:20.434Z,58.51
2022-11-30T10:46:37.614Z,58.33
2022-11-30T10:47:47.981Z,58.58
2022-11-30T10:48:59.366Z,59.99
2022-11-30T10:50:02.900Z,59.32
2022-11-30T10:51:07.362Z,59.34
2022-11-30T10:52:12.902Z,59.29
2022-11-30T10:53:15.750Z,59.46
2022-11-30T10:54:22.991Z,58.37
2022-11-30T10:55:31.978Z,58.17
2022-11-30T10:56:36.588Z,57.93
2022-11-30T10:57:39.341Z,58.24
2022-11-30T10:58:54.825Z,58.05
2022-11-30T11:00:00.496Z,58.55
2022-11-30T11:01:08.014Z,57.73
2022-11-30T11:02:32.664Z,59.18
2022-11-30T11:03:35.859Z,58.51
2022-11-30T11:04:38.672Z,58.24
2022-11-30T11:05:41.504Z,57.98
2022-11-30T11:07:09.575Z,58.92
2022-11-30T11:08:29.679Z,58.55
2022-11-30T11:09:39.014Z,58.13
2022-11-30T11:10:49.978Z,58.98
2022-11-30T11:12:02.374Z,58.87
2022-11-30T11:13:05.818Z,58.67
2022-11-30T11:14:31.360Z,59.11
2022-11-30T11:15:38.005Z,59.89
2022-11-30T11:17:03.054Z,59.30
2022-11-30T11:18:19.236Z,59.11
2022-11-30T11:19:38.423Z,58.97
2022-11-30T11:20:43.616Z,59.02
2022-11-30T11:22:59.035Z,59.70
2022-11-30T11:24:09.821Z,59.09
2022-11-30T11:25:27.446Z,58.67
2022-11-30T11:26:35.232Z,58.96
2022-11-30T11:27:44.197Z,60.20
2022-11-30T11:28:53.710Z,59.21
2022-11-30T11:30:12.438Z,58.73
2022-11-30T11:31:17.207Z,59.20
2022-11-30T11:32:27.915Z,58.98
2022-11-30T11:33:30.767Z,59.39
2022-11-30T11:34:35.880Z,60.09
2022-11-30T11:35:50.509Z,60.22
2022-11-30T11:37:12.652Z,59.62
2022-11-30T11:38:43.338Z,59.29
2022-11-30T11:39:58.490Z,58.87
2022-11-30T11:41:12.775Z,59.47
2022-11-30T11:42:22.503Z,59.24
2022-11-30T11:43:28.734Z,60.54
2022-11-30T11:44:32.191Z,60.07
2022-11-30T11:45:38.605Z,60.29
2022-11-30T11:47:03.865Z,60.21
2022-11-30T11:48:29.239Z,59.96
2022-11-30T11:49:37.582Z,60.31
2022-11-30T11:52:21.607Z,61.09
2022-11-30T11:53:55.494Z,59.66
2022-11-30T11:55:10.520Z,59.87
2022-11-30T11:56:28.005Z,61.21
2022-11-30T11:57:41.837Z,61.33
2022-11-30T11:58:52.511Z,60.99
2022-11-30T12:00:01.586Z,60.36
2022-11-30T12:01:38.569Z,60.03
2022-11-30T12:02:52.427Z,59.64
2022-11-30T12:04:05.973Z,59.90
2022-11-30T12:05:33.704Z,60.99
2022-11-30T12:06:37.349Z,60.61
2022-11-30T12:08:06.006Z,60.21
2022-11-30T12:09:18.329Z,60.46
2022-11-30T12:10:53.182Z,60.86
2022-11-30T12:11:56.387Z,62.51
2022-11-30T12:12:59.648Z,60.81
2022-11-30T12:14:09.528Z,60.86
2022-11-30T12:15:13.228Z,61.91
2022-11-30T12:16:38.083Z,61.56
2022-11-30T12:18:15.950Z,61.39
2022-11-30T12:19:33.876Z,61.17
2022-11-30T12:21:06.449Z,61.13
2022-11-30T12:22:38.046Z,61.45
2022-11-30T12:24:19.575Z,61.92
2022-11-30T12:25:28.466Z,61.78
2022-11-30T12:26:53.595Z,61.40
2022-11-30T12:28:19.551Z,61.04
2022-11-30T12:29:41.153Z,62.55
2022-11-30T12:31:18.246Z,61.57
2022-11-30T12:32:58.211Z,61.46
2022-11-30T12:34:17.550Z,60.64
2022-11-30T12:35:27.319Z,61.96
2022-11-30T12:37:02.419Z,61.98
2022-11-30T12:38:14.486Z,61.37
2022-11-30T12:40:00.670Z,61.61
2022-11-30T12:41:28.623Z,61.12
2022-11-30T12:42:52.820Z,61.28
2022-11-30T12:44:13.731Z,61.00
2022-11-30T12:45:43.861Z,62.25
2022-11-30T12:47:18.013Z,62.41
2022-11-30T12:48:39.596Z,61.69
2022-11-30T12:50:05.297Z,61.86
2022-11-30T12:51:29.396Z,61.45
2022-11-30T12:52:57.167Z,60.97
2022-11-30T12:54:24.352Z,61.91
2022-11-30T12:55:29.706Z,61.37
2022-11-30T12:56:46.692Z,62.26
2022-11-30T12:58:13.652Z,62.04
2022-11-30T12:59:25.192Z,61.62
2022-11-30T13:00:54.069Z,61.50
2022-11-30T13:02:18.699Z,62.15
2022-11-30T13:03:58.058Z,62.27
2022-11-30T13:05:06.897Z,62.38
2022-11-30T13:06:15.068Z,62.46
2022-11-30T13:07:51.701Z,61.96
2022-11-30T13:09:15.175Z,61.00
2022-11-30T13:10:37.780Z,61.05
2022-11-30T13:11:47.398Z,61.97
2022-11-30T13:12:53.359Z,62.07
2022-11-30T13:13:59.662Z,61.38
2022-11-30T13:15:11.074Z,61.67
2022-11-30T13:16:20.844Z,61.34
2022-11-30T13:17:24.688Z,61.32
2022-11-30T13:18:28.632Z,61.37
2022-11-30T13:19:40.217Z,61.79
2022-11-30T13:20:48.155Z,61.97
2022-11-30T13:21:58.367Z,62.52
2022-11-30T13:23:34.437Z,61.90
2022-11-30T13:24:42.431Z,62.45
2022-11-30T13:26:08.189Z,62.27
2022-11-30T13:27:37.684Z,62.48
2022-11-30T13:28:40.423Z,63.89
2022-11-30T13:30:13.526Z,63.17
2022-11-30T13:31:23.400Z,63.04
2022-11-30T13:32:56.677Z,63.14
2022-11-30T13:34:00.268Z,63.25
2022-11-30T13:35:38.187Z,63.07
2022-11-30T13:36:45.421Z,62.58
2022-11-30T13:39:31.763Z,63.27
2022-11-30T13:40:34.973Z,64.60
2022-11-30T13:41:38.522Z,64.62
2022-11-30T13:42:51.420Z,64.38
2022-11-30T13:43:54.446Z,64.35
2022-11-30T13:45:17.921Z,63.53
2022-11-30T13:46:24.127Z,63.70
2022-11-30T13:47:31.166Z,63.80
2022-11-30T13:48:43.639Z,64.14
2022-11-30T13:49:47.369Z,64.67
2022-11-30T13:50:50.229Z,64.54
2022-11-30T13:52:20.741Z,64.21
2022-11-30T13:53:23.722Z,64.34
2022-11-30T13:54:45.144Z,64.45
2022-11-30T13:55:48.126Z,63.36
2022-11-30T13:58:05.490Z,64.48
2022-11-30T13:59:25.639Z,64.51
2022-11-30T14:00:31.415Z,65.39
2022-11-30T14:01:37.538Z,65.60
2022-11-30T14:02:43.698Z,65.96
2022-11-30T14:04:15.319Z,65.60
2022-11-30T14:05:18.223Z,65.12
2022-11-30T14:06:39.439Z,64.92
2022-11-30T14:07:51.341Z,66.04
2022-11-30T14:08:54.181Z,65.50
2022-11-30T14:09:58.943Z,65.93
2022-11-30T14:11:33.050Z,65.98
2022-11-30T14:12:46.006Z,66.17
2022-11-30T14:13:48.804Z,66.28
2022-11-30T14:14:51.602Z,65.51
2022-11-30T14:16:00.156Z,65.89
2022-11-30T14:17:03.714Z,65.55
2022-11-30T14:18:09.128Z,65.49
2022-11-30T14:19:12.408Z,65.97
2022-11-30T14:20:22.604Z,65.83
2022-11-30T14:21:36.973Z,65.72
2022-11-30T14:22:40.714Z,66.20
2022-11-30T14:23:59.212Z,65.68
2022-11-30T14:25:03.420Z,65.46
2022-11-30T14:26:12.688Z,65.46
2022-11-30T14:27:23.093Z,66.96
2022-11-30T14:28:52.352Z,66.63
2022-11-30T14:30:02.231Z,66.59
2022-11-30T14:31:18.635Z,65.77
2022-11-30T14:32:35.625Z,65.13
2022-11-30T14:33:55.885Z,64.16
2022-11-30T14:35:08.220Z,63.73
2022-11-30T14:36:15.506Z,64.11
2022-11-30T14:37:31.735Z,64.16
2022-11-30T14:38:41.469Z,63.93
2022-11-30T14:39:46.709Z,64.22
2022-11-30T14:40:51.270Z,64.58
2022-11-30T14:41:54.870Z,64.67
2022-11-30T14:43:02.749Z,64.04
2022-11-30T14:44:14.562Z,64.16
2022-11-30T14:45:26.729Z,64.12
2022-11-30T14:46:30.965Z,64.63
2022-11-30T14:47:35.889Z,64.40